Time;durP1;ratioP1;P1;durP2;ratioP2;P2;SDS_P1;SDS_P2;PMS_P1;PMS_P2;Temp;Humidity;BMP_temperature;BMP_pressure;BME280_temperature;BME280_humidity;BME280_pressure;Samples;Min_cycle;Max_cycle;Signal;HPM_P1;HPM_P2
2021/12/24 00:02:03;;;;;;;33.90;24.27;;;;;;;9.63;65.53;101575.19;5038235;27;104172;-48
2021/12/24 00:04:31;;;;;;;29.88;22.63;;;;;;;9.63;65.33;101561.59;5054095;27;102166;-48
2021/12/24 00:06:57;;;;;;;28.20;21.90;;;;;;;9.62;66.11;101557.22;5053151;27;102846;-49
2021/12/24 00:09:26;;;;;;;30.85;21.73;;;;;;;9.62;66.04;101551.78;5037344;27;103851;-49
2021/12/24 00:11:59;;;;;;;;;;;;;;;9.62;66.06;101541.72;5041602;27;102207;-49
2021/12/24 00:14:27;;;;;;;28.48;20.40;;;;;;;9.62;65.94;101535.47;5037139;27;102175;-49
2021/12/24 00:16:59;;;;;;;28.63;21.38;;;;;;;9.61;65.23;101533.84;5039330;27;102368;-49
2021/12/24 00:35:41;;;;;;;26.55;19.20;;;;;;;9.60;65.72;101480.56;5041355;27;102465;-49
2021/12/24 00:38:10;;;;;;;24.92;19.17;;;;;;;9.60;65.40;101477.84;5036165;27;102612;-49
2021/12/24 00:40:39;;;;;;;26.05;18.00;;;;;;;9.59;65.63;101468.88;5040832;27;103903;-49
2021/12/24 00:43:06;;;;;;;24.60;17.77;;;;;;;9.59;66.10;101471.59;5052940;27;102473;-49
2021/12/24 00:45:35;;;;;;;23.88;18.10;;;;;;;9.58;65.45;101458.22;5043187;27;102573;-49
2021/12/24 00:48:04;;;;;;;25.33;18.08;;;;;;;9.59;65.66;101446.28;5050031;27;102438;-49
2021/12/24 00:50:46;;;;;;;21.58;16.50;;;;;;;9.58;65.52;101441.94;5040467;27;103590;-49
2021/12/24 00:55:58;;;;;;;23.52;16.55;;;;;;;9.58;65.95;101425.63;5046751;27;101998;-49
2021/12/24 00:58:24;;;;;;;21.35;16.27;;;;;;;9.57;65.82;101419.38;5037613;27;102326;-49
2021/12/24 01:00:51;;;;;;;20.52;16.42;;;;;;;9.57;65.75;101407.69;5050013;27;103824;-49
2021/12/24 01:03:19;;;;;;;21.38;16.33;;;;;;;9.58;65.61;101403.88;5035775;27;102432;-49
2021/12/24 01:05:45;;;;;;;21.77;16.10;;;;;;;9.57;65.74;101396.81;5038931;27;102119;-49
2021/12/24 01:08:14;;;;;;;21.20;15.50;;;;;;;9.58;65.70;101377.53;5049032;27;102295;-49
2021/12/24 01:10:44;;;;;;;19.15;15.10;;;;;;;9.58;65.61;101382.13;5035698;27;104302;-48
2021/12/24 01:13:11;;;;;;;19.15;14.95;;;;;;;9.58;65.70;101382.13;5053799;27;102642;-49
2021/12/24 01:15:49;;;;;;;18.27;14.75;;;;;;;9.57;65.25;101375.88;5047471;27;101989;-49
2021/12/24 01:18:26;;;;;;;18.40;15.45;;;;;;;9.57;66.11;101370.44;5034825;27;102230;-49
2021/12/24 01:21:10;;;;;;;18.23;14.43;;;;;;;9.56;65.60;101355.22;5037153;27;103882;-49
2021/12/24 01:23:56;;;;;;;19.00;15.20;;;;;;;9.57;66.13;101350.59;5034998;27;102180;-49
2021/12/24 01:40:21;;;;;;;18.63;14.10;;;;;;;9.57;65.60;101315.28;5035526;27;102419;-50
2021/12/24 01:42:53;;;;;;;17.38;13.52;;;;;;;9.57;65.66;101309.84;5033932;27;104004;-49
2021/12/24 01:45:22;;;;;;;18.92;13.75;;;;;;;9.57;65.23;101298.97;5040289;27;102571;-50
2021/12/24 01:47:50;;;;;;;17.70;13.07;;;;;;;9.56;65.64;101284.56;5035897;27;102141;-49
2021/12/24 01:50:20;;;;;;;16.95;12.73;;;;;;;9.56;65.36;101286.47;5037393;27;103036;-49
2021/12/24 01:52:50;;;;;;;18.60;13.10;;;;;;;9.56;65.67;101270.16;5033420;27;103971;-51
2021/12/24 01:55:18;;;;;;;18.92;13.10;;;;;;;9.56;65.69;101268.28;5035611;27;102251;-50
2021/12/24 01:57:45;;;;;;;17.92;12.77;;;;;;;9.56;65.42;101262.03;5037638;27;102345;-50
2021/12/24 02:00:17;;;;;;;16.88;12.57;;;;;;;9.56;65.70;101259.31;5038938;27;102272;-50
2021/12/24 02:02:43;;;;;;;15.48;12.27;;;;;;;9.57;66.01;101252.78;5036296;27;104040;-50
2021/12/24 02:05:10;;;;;;;16.90;12.75;;;;;;;9.56;65.23;101240.28;5043040;27;101901;-49
2021/12/24 02:07:37;;;;;;;15.77;12.30;;;;;;;9.56;65.44;101229.41;5053954;27;102162;-50
2021/12/24 02:10:08;;;;;;;13.93;11.45;;;;;;;9.56;65.19;101229.41;5055345;27;102313;-49
2021/12/24 02:12:36;;;;;;;15.95;12.52;;;;;;;9.56;66.13;101216.66;5054514;27;103891;-49
2021/12/24 02:15:04;;;;;;;13.57;11.52;;;;;;;9.56;65.41;101210.41;5043883;27;103042;-49
2021/12/24 02:28:38;;;;;;;12.30;10.90;;;;;;;9.55;65.73;101165.25;5041912;27;102408;-49
2021/12/24 02:31:06;;;;;;;14.93;11.48;;;;;;;9.54;65.48;101152.75;5051960;27;102234;-48
2021/12/24 02:33:33;;;;;;;15.37;11.77;;;;;;;9.55;65.40;101148.94;5050419;27;103974;-49
2021/12/24 02:36:01;;;;;;;16.70;11.05;;;;;;;9.55;65.78;101138.09;5042130;27;102377;-49
2021/12/24 02:38:27;;;;;;;12.77;10.30;;;;;;;9.55;65.62;101132.66;5050911;27;102527;-49
2021/12/24 02:40:54;;;;;;;12.77;10.00;;;;;;;9.54;65.49;101131.00;5051897;27;102291;-50
2021/12/24 02:43:22;;;;;;;13.20;11.02;;;;;;;9.55;65.92;101121.78;5042653;27;103933;-50
2021/12/24 02:45:52;;;;;;;12.65;9.63;;;;;;;9.56;65.89;101118.00;5038192;27;102292;-50
2021/12/24 02:48:55;;;;;;;14.95;10.05;;;;;;;9.54;65.25;101106.56;5050035;27;102161;-50
2021/12/24 02:54:00;;;;;;;13.65;9.77;;;;;;;9.53;65.41;101086.72;5036610;27;103734;-49
2021/12/24 02:56:29;;;;;;;11.77;9.82;;;;;;;9.54;65.51;101082.09;5056448;27;102207;-49
2021/12/24 02:58:58;;;;;;;12.57;9.73;;;;;;;9.54;65.66;101082.91;5037173;27;102513;-49
2021/12/24 03:01:29;;;;;;;11.97;10.37;;;;;;;9.55;65.96;101081.84;5037627;27;103044;-49
2021/12/24 03:03:56;;;;;;;12.77;9.93;;;;;;;9.54;65.78;101068.53;5049521;27;104070;-48
2021/12/24 03:06:26;;;;;;;13.45;10.18;;;;;;;9.54;65.36;101060.38;5057707;27;101962;-48
2021/12/24 03:08:52;;;;;;;13.20;9.90;;;;;;;9.56;65.86;101058.22;5053668;27;102317;-49
2021/12/24 03:11:19;;;;;;;11.68;9.57;;;;;;;9.55;66.15;101051.13;5039062;27;102212;-51
2021/12/24 03:13:47;;;;;;;13.00;9.57;;;;;;;9.55;66.05;101046.50;5039670;27;103907;-49
2021/12/24 03:16:13;;;;;;;12.35;9.48;;;;;;;9.56;65.39;101041.94;5037066;27;101972;-49
2021/12/24 03:18:42;;;;;;;10.15;9.05;;;;;;;9.55;65.99;101041.09;5043006;27;102123;-49
2021/12/24 03:24:33;;;;;;;10.90;9.05;;;;;;;9.57;65.79;101043.56;5047182;27;104120;-49
2021/12/24 03:26:32;;;;;;;11.27;9.10;;;;;;;9.55;65.92;101027.50;5052034;27;102473;-49
2021/12/24 03:28:59;;;;;;;9.77;8.75;;;;;;;9.57;65.79;101029.97;5037230;27;102232;-49
2021/12/24 03:31:25;;;;;;;10.93;8.48;;;;;;;9.56;65.67;101025.63;5039221;27;102139;-49
2021/12/24 03:33:53;;;;;;;10.55;8.88;;;;;;;9.56;66.23;101020.19;5038705;27;103930;-49
2021/12/24 03:36:21;;;;;;;10.68;8.80;;;;;;;9.56;65.50;101010.13;5040909;27;103066;-49
2021/12/24 03:38:49;;;;;;;10.63;8.52;;;;;;;9.56;65.51;101004.69;5043818;27;102442;-49
2021/12/24 03:41:16;;;;;;;10.82;9.07;;;;;;;9.57;65.66;101000.09;5051387;27;102197;-50
2021/12/24 03:43:42;;;;;;;9.82;8.23;;;;;;;9.56;65.95;100996.56;5035973;27;103881;-49
2021/12/24 03:46:14;;;;;;;9.85;8.32;;;;;;;9.56;65.59;100985.69;5037318;27;102607;-49
2021/12/24 03:56:30;;;;;;;9.63;7.78;;;;;;;9.57;66.14;100972.91;5057173;27;102676;-49
2021/12/24 03:58:56;;;;;;;9.93;8.13;;;;;;;9.56;65.87;100974.81;5056637;27;102211;-48
2021/12/24 04:01:23;;;;;;;10.15;7.60;;;;;;;9.58;65.63;100958.25;5047868;27;102190;-49
2021/12/24 04:03:52;;;;;;;8.98;7.97;;;;;;;9.58;65.83;100958.25;5037135;27;104073;-48
2021/12/24 04:06:19;;;;;;;9.45;8.05;;;;;;;9.58;65.87;100960.97;5036565;27;102008;-48
2021/12/24 04:08:45;;;;;;;10.48;8.38;;;;;;;9.58;65.72;100953.63;5047749;27;102722;-48
2021/12/24 04:11:12;;;;;;;9.52;8.00;;;;;;;9.57;66.27;100940.31;5045845;27;102178;-50
2021/12/24 04:13:40;;;;;;;9.65;7.97;;;;;;;9.59;66.04;100938.13;5046797;27;103701;-49
2021/12/24 04:16:06;;;;;;;10.43;7.97;;;;;;;9.58;66.30;100931.06;5045186;27;102425;-49
2021/12/24 04:26:33;;;;;;;8.02;7.00;;;;;;;9.58;65.87;100926.44;5039258;27;102220;-49
2021/12/24 04:29:01;;;;;;;8.55;7.20;;;;;;;9.58;65.37;100909.34;5038713;27;102836;-49
2021/12/24 04:31:38;;;;;;;9.88;7.88;;;;;;;9.57;65.79;100908.53;5053608;27;103968;-49
2021/12/24 04:34:05;;;;;;;8.40;7.07;;;;;;;9.58;65.87;100904.72;5036412;27;107998;-50
2021/12/24 05:03:32;;;;;;;8.90;6.82;;;;;;;9.59;65.56;100829.44;5052375;27;102836;-48
2021/12/24 05:06:28;;;;;;;8.52;7.28;;;;;;;9.59;65.65;100835.72;5054129;27;104029;-48
2021/12/24 05:08:58;;;;;;;10.60;7.60;;;;;;;9.60;65.71;100831.91;5036490;27;102144;-50
2021/12/24 05:11:25;;;;;;;8.38;7.15;;;;;;;9.60;65.65;100831.09;5034215;27;102471;-48
2021/12/24 05:13:53;;;;;;;8.18;7.13;;;;;;;9.59;65.90;100819.44;5036109;27;102360;-49
2021/12/24 05:16:36;;;;;;;9.32;7.15;;;;;;;9.60;66.05;100817.53;5038427;27;103691;-49
2021/12/24 05:21:48;;;;;;;7.40;6.50;;;;;;;9.59;65.73;100818.56;5047966;27;105284;-49
2021/12/24 05:24:17;;;;;;;8.77;6.95;;;;;;;9.59;66.00;100813.16;5047041;27;102102;-49
2021/12/24 05:26:47;;;;;;;7.20;6.50;;;;;;;9.59;65.77;100796.84;5039932;27;103890;-49
2021/12/24 05:29:15;;;;;;;8.48;7.25;;;;;;;9.59;66.37;100802.28;5052932;27;102221;-49
2021/12/24 05:31:44;;;;;;;7.32;6.60;;;;;;;9.58;65.98;100790.59;5050956;27;102215;-48
2021/12/24 05:34:11;;;;;;;7.88;6.45;;;;;;;9.60;65.57;100787.63;5054473;27;102227;-49
2021/12/24 05:36:38;;;;;;;7.47;6.78;;;;;;;9.59;65.91;100785.97;5053404;27;104063;-50
2021/12/24 05:39:04;;;;;;;8.25;6.72;;;;;;;9.59;65.79;100775.09;5054140;27;102285;-50
2021/12/24 05:41:31;;;;;;;7.38;6.45;;;;;;;9.60;66.24;100776.75;5040616;27;102253;-49
2021/12/24 05:43:59;;;;;;;10.45;7.65;;;;;;;9.61;66.37;100775.69;5041011;27;102232;-51
2021/12/24 05:46:26;;;;;;;7.38;6.55;;;;;;;9.58;65.62;100757.19;5040414;27;103912;-49
2021/12/24 05:48:54;;;;;;;7.38;6.57;;;;;;;9.59;65.80;100765.09;5038204;27;102193;-49
2021/12/24 05:51:21;;;;;;;8.18;6.15;;;;;;;9.59;65.70;100759.66;5035807;27;103544;-49
2021/12/24 05:53:47;;;;;;;7.07;6.20;;;;;;;9.58;65.56;100763.44;5045478;27;102241;-49
2021/12/24 05:56:14;;;;;;;7.45;6.55;;;;;;;9.59;65.42;100750.66;5044829;27;103948;-49
2021/12/24 05:58:40;;;;;;;7.53;6.32;;;;;;;9.59;66.19;100753.38;5036103;27;102539;-49
2021/12/24 06:01:07;;;;;;;7.05;6.35;;;;;;;9.59;66.07;100750.66;5036505;27;102767;-49
2021/12/24 06:03:33;;;;;;;7.18;6.38;;;;;;;9.59;65.83;100758.81;5054499;27;102660;-49
2021/12/24 06:06:02;;;;;;;6.88;6.18;;;;;;;9.59;65.61;100764.25;5037769;27;104106;-51
2021/12/24 06:08:28;;;;;;;7.28;5.95;;;;;;;9.59;66.06;100765.09;5042010;27;102594;-49
2021/12/24 06:10:55;;;;;;;6.80;6.10;;;;;;;9.60;66.10;100757.75;5043386;27;102324;-48
2021/12/24 06:13:27;;;;;;;7.53;6.50;;;;;;;9.59;66.09;100758.81;5045147;27;102255;-49
2021/12/24 06:15:54;;;;;;;7.80;6.38;;;;;;;9.59;66.38;100764.25;5036957;27;103876;-49
2021/12/24 06:18:24;;;;;;;8.68;6.13;;;;;;;9.60;65.78;100760.47;5040965;27;103117;-49
2021/12/24 06:20:52;;;;;;;6.30;5.70;;;;;;;9.59;65.68;100754.22;5038590;27;102585;-49
2021/12/24 06:23:22;;;;;;;6.55;5.82;;;;;;;9.59;65.57;100743.34;5040915;27;102185;-49
2021/12/24 06:25:49;;;;;;;6.95;5.68;;;;;;;9.60;65.53;100744.16;5038765;27;104236;-48
2021/12/24 06:28:15;;;;;;;6.72;5.80;;;;;;;9.60;65.95;100741.44;5039264;27;102019;-49
2021/12/24 06:30:42;;;;;;;6.38;5.72;;;;;;;9.60;65.68;100734.09;5045352;27;102323;-49
2021/12/24 06:33:09;;;;;;;7.32;6.20;;;;;;;9.61;65.79;100724.03;5035058;27;103408;-49
2021/12/24 06:35:36;;;;;;;6.80;5.38;;;;;;;9.61;66.04;100730.28;5032501;27;104098;-48
2021/12/24 06:38:02;;;;;;;7.32;5.95;;;;;;;9.62;66.14;100722.97;5034597;27;102229;-49
2021/12/24 06:40:31;;;;;;;8.32;5.85;;;;;;;9.62;65.67;100714.81;5050710;27;102115;-48
2021/12/24 06:42:58;;;;;;;6.80;5.80;;;;;;;9.63;65.87;100721.91;5034979;27;104056;-49
2021/12/24 06:45:24;;;;;;;6.47;5.55;;;;;;;9.64;66.29;100723.53;5033936;27;104122;-49
2021/12/24 06:47:52;;;;;;;6.63;5.60;;;;;;;9.64;66.21;100720.81;5044706;27;102376;-49
2021/12/24 06:50:19;;;;;;;6.28;5.50;;;;;;;9.64;66.00;100712.66;5036273;27;102310;-50
2021/12/24 06:52:45;;;;;;;6.82;6.13;;;;;;;9.63;66.24;100711.03;5051065;27;102542;-49
2021/12/24 06:55:13;;;;;;;5.93;5.13;;;;;;;9.66;66.20;100712.38;5045882;27;103998;-50
2021/12/24 06:57:42;;;;;;;7.13;5.57;;;;;;;9.65;66.13;100714.28;5041545;27;102471;-50
2021/12/24 07:00:10;;;;;;;6.55;5.90;;;;;;;9.65;66.04;100711.56;5038995;27;102311;-49
2021/12/24 07:02:39;;;;;;;6.93;6.03;;;;;;;9.65;66.07;100708.84;5037211;27;102493;-49
2021/12/24 07:05:05;;;;;;;7.53;5.80;;;;;;;9.65;65.56;100700.69;5038215;27;104056;-48
2021/12/24 07:07:33;;;;;;;5.97;5.25;;;;;;;9.65;66.10;100694.44;5047933;27;102501;-50
2021/12/24 07:09:59;;;;;;;5.93;5.32;;;;;;;9.66;65.94;100682.50;5043629;27;102964;-48
2021/12/24 07:12:26;;;;;;;6.53;5.78;;;;;;;9.65;66.37;100670.81;5049599;27;102153;-49
2021/12/24 07:14:53;;;;;;;6.18;5.57;;;;;;;9.65;66.01;100670.00;5035773;27;103960;-48
2021/12/24 07:17:20;;;;;;;6.85;5.68;;;;;;;9.65;66.01;100665.38;5036692;27;102814;-49
2021/12/24 07:19:47;;;;;;;6.80;5.93;;;;;;;9.65;65.86;100662.66;5039019;27;102664;-48
2021/12/24 07:22:16;;;;;;;6.00;5.43;;;;;;;9.66;66.08;100649.88;5039818;27;102192;-49
2021/12/24 07:24:42;;;;;;;;;;;;;;;9.66;65.75;100639.81;5036884;27;103919;-48
2021/12/24 07:27:09;;;;;;;6.70;6.00;;;;;;;9.66;65.85;100642.53;5043504;27;102282;-56
2021/12/24 07:29:37;;;;;;;6.65;5.85;;;;;;;9.67;66.26;100632.50;5043293;27;103859;-49
2021/12/24 07:32:06;;;;;;;6.43;5.78;;;;;;;9.65;66.23;100624.59;5037257;27;103131;-49
2021/12/24 07:34:33;;;;;;;7.75;5.57;;;;;;;9.66;66.42;100620.81;5046124;27;104094;-50
2021/12/24 07:37:00;;;;;;;7.40;6.00;;;;;;;9.65;65.40;100619.19;5045068;27;102510;-50
2021/12/24 07:39:26;;;;;;;9.13;6.13;;;;;;;9.65;65.48;100616.47;5038097;27;102477;-50
2021/12/24 07:41:53;;;;;;;8.23;6.05;;;;;;;9.66;66.27;100604.50;5045023;27;102443;-49
2021/12/24 07:44:20;;;;;;;6.97;6.15;;;;;;;9.65;65.67;100599.34;5046226;27;104063;-49
2021/12/24 07:46:51;;;;;;;7.00;5.70;;;;;;;9.65;65.79;100602.06;5037499;27;102298;-48
2021/12/24 07:54:23;;;;;;;10.38;6.85;;;;;;;9.65;65.73;100583.03;5052180;27;103868;-49
2021/12/24 07:56:49;;;;;;;9.85;6.25;;;;;;;9.65;65.96;100583.84;5045386;27;102317;-49
2021/12/24 07:59:16;;;;;;;7.47;6.05;;;;;;;9.65;66.15;100574.88;5043001;27;102192;-49
2021/12/24 08:01:46;;;;;;;8.00;6.38;;;;;;;9.65;66.10;100583.84;5048604;27;102187;-49
2021/12/24 08:04:13;;;;;;;7.60;6.38;;;;;;;9.66;65.85;100580.03;5046351;27;103956;-49
2021/12/24 08:06:41;;;;;;;9.90;7.15;;;;;;;9.65;65.76;100586.56;5050859;27;102246;-49
2021/12/24 08:09:08;;;;;;;9.80;7.15;;;;;;;9.65;65.62;100578.41;5053687;27;102328;-50
2021/12/24 08:11:34;;;;;;;13.80;6.78;;;;;;;9.65;65.76;100583.84;5049768;27;102271;-48
2021/12/24 08:14:01;;;;;;;10.32;6.95;;;;;;;9.66;65.47;100573.78;5049002;27;104036;-49
2021/12/24 08:16:29;;;;;;;8.00;6.72;;;;;;;9.66;65.67;100568.38;5043021;27;102180;-49
2021/12/24 08:18:58;;;;;;;9.50;6.40;;;;;;;9.66;65.52;100552.88;5045216;27;101943;-49
2021/12/24 08:21:25;;;;;;;7.57;6.72;;;;;;;9.65;65.80;100545.81;5045863;27;102171;-48
2021/12/24 08:23:53;;;;;;;7.38;6.50;;;;;;;9.65;65.58;100543.09;5041816;27;104165;-50
2021/12/24 08:26:21;;;;;;;10.05;6.85;;;;;;;9.67;65.78;100534.69;5039785;27;102904;-49
2021/12/24 08:28:48;;;;;;;9.05;6.88;;;;;;;9.65;65.64;100529.50;5037237;27;102097;-49
2021/12/24 08:31:15;;;;;;;9.88;7.70;;;;;;;9.66;65.60;100514.00;5044134;27;102694;-49
2021/12/24 08:33:42;;;;;;;10.82;7.40;;;;;;;9.66;65.65;100514.81;5042450;27;104049;-49
2021/12/24 08:36:09;;;;;;;10.70;7.10;;;;;;;9.66;65.44;100509.41;5038241;27;109512;-50
2021/12/24 08:38:36;;;;;;;9.02;7.35;;;;;;;9.66;65.83;100503.97;5044696;27;102061;-49
2021/12/24 08:41:04;;;;;;;9.68;7.20;;;;;;;9.66;65.39;100487.66;5042856;27;102137;-49
2021/12/24 08:43:30;;;;;;;11.35;7.75;;;;;;;9.66;65.32;100484.13;5039141;27;103832;-49
2021/12/24 08:45:57;;;;;;;10.07;7.75;;;;;;;9.66;65.80;100487.66;5044531;27;102220;-49
2021/12/24 08:48:23;;;;;;;9.50;7.75;;;;;;;9.66;65.62;100482.22;5043973;27;103696;-49
2021/12/24 08:50:50;;;;;;;10.00;7.50;;;;;;;9.66;66.01;100476.78;5053588;27;102231;-49
2021/12/24 08:53:17;;;;;;;11.15;8.02;;;;;;;9.66;66.14;100473.25;5036489;27;104119;-48
2021/12/24 08:55:43;;;;;;;8.63;7.57;;;;;;;9.65;65.54;100456.16;5038015;27;102537;-49
2021/12/24 08:58:13;;;;;;;9.52;7.82;;;;;;;9.66;66.04;100459.69;5035380;27;102256;-49
2021/12/24 09:00:39;;;;;;;9.90;7.47;;;;;;;9.65;65.69;100448.00;5054501;27;102404;-49
2021/12/24 09:03:06;;;;;;;9.20;7.57;;;;;;;9.65;65.97;100437.13;5052425;27;103893;-49
2021/12/24 09:05:32;;;;;;;10.75;7.75;;;;;;;9.65;65.79;100418.09;5042848;27;102570;-49
2021/12/24 09:07:59;;;;;;;9.85;8.18;;;;;;;9.66;65.30;100408.03;5040067;27;102387;-50
2021/12/24 09:10:26;;;;;;;8.73;7.30;;;;;;;9.66;65.78;100405.34;5043287;27;102421;-49
2021/12/24 09:12:53;;;;;;;10.02;7.75;;;;;;;9.66;66.07;100400.72;5035778;27;104130;-48
2021/12/24 09:15:21;;;;;;;8.85;7.47;;;;;;;9.66;66.17;100398.00;5036771;27;102231;-49
2021/12/24 09:17:48;;;;;;;9.68;7.72;;;;;;;9.65;65.62;100382.78;5035369;27;102434;-49
2021/12/24 09:20:18;;;;;;;8.60;7.75;;;;;;;9.67;66.09;100386.06;5036067;27;102168;-49
2021/12/24 09:22:47;;;;;;;9.70;8.20;;;;;;;9.66;65.50;100378.97;5043034;27;104123;-49
2021/12/24 09:25:14;;;;;;;10.77;8.35;;;;;;;9.65;65.85;100371.91;5053200;27;101958;-49
2021/12/24 09:27:41;;;;;;;8.70;7.72;;;;;;;9.65;66.08;100361.03;5037651;27;104361;-49
2021/12/24 09:30:08;;;;;;;11.50;8.02;;;;;;;9.66;65.27;100362.66;5039722;27;102314;-49
2021/12/24 09:32:37;;;;;;;8.57;7.67;;;;;;;9.66;65.49;100357.22;5053793;27;104030;-48
2021/12/24 09:35:04;;;;;;;8.97;7.80;;;;;;;9.67;65.64;100353.44;5039892;27;102826;-49
2021/12/24 09:37:31;;;;;;;9.25;7.50;;;;;;;9.66;65.43;100334.69;5036473;27;102641;-49
2021/12/24 09:39:58;;;;;;;9.70;7.72;;;;;;;9.66;65.18;100334.69;5046474;27;102675;-49
2021/12/24 09:42:25;;;;;;;9.88;7.63;;;;;;;9.66;65.74;100335.50;5037941;27;103866;-49
2021/12/24 09:44:51;;;;;;;8.63;7.30;;;;;;;9.67;65.31;100322.75;5043816;27;102574;-49
2021/12/24 09:47:18;;;;;;;9.07;7.55;;;;;;;9.66;65.83;100310.22;5045131;27;102126;-49
2021/12/24 09:49:46;;;;;;;9.68;8.02;;;;;;;9.66;65.73;100304.81;5043170;27;102549;-49
2021/12/24 09:52:13;;;;;;;7.95;7.15;;;;;;;9.66;65.44;100302.09;5039972;27;103960;-49
2021/12/24 09:54:42;;;;;;;8.20;7.35;;;;;;;9.67;65.54;100292.88;5039132;27;102511;-49
2021/12/24 09:57:09;;;;;;;;;;;;;;;9.67;65.81;100287.44;5043224;27;102214;-49
2021/12/24 09:59:36;;;;;;;10.45;7.43;;;;;;;9.67;66.14;100277.38;5029105;27;102297;-49
2021/12/24 10:02:04;;;;;;;9.02;7.72;;;;;;;9.67;65.60;100277.38;5041669;27;104022;-49
2021/12/24 10:04:33;;;;;;;8.57;7.57;;;;;;;9.67;65.04;100271.13;5040146;27;102216;-49
2021/12/24 10:07:04;;;;;;;9.30;7.57;;;;;;;9.67;65.70;100265.69;5050659;27;102200;-49
2021/12/24 10:09:32;;;;;;;8.60;7.43;;;;;;;9.66;65.75;100259.41;5041293;27;102301;-48
2021/12/24 10:12:02;;;;;;;8.80;7.50;;;;;;;9.68;65.79;100261.88;5035980;27;103724;-49
2021/12/24 10:14:31;;;;;;;8.93;7.65;;;;;;;9.67;65.31;100249.38;5037241;27;102125;-49
2021/12/24 10:16:59;;;;;;;;;;;;;;;9.67;65.55;100244.75;5035923;27;102311;-50
2021/12/24 10:19:43;;;;;;;8.63;7.45;;;;;;;9.67;65.61;100239.34;5045849;27;102171;-49
2021/12/24 10:22:11;;;;;;;8.90;7.38;;;;;;;9.67;66.19;100235.81;5039182;27;107983;-48
2021/12/24 10:24:38;;;;;;;14.52;7.50;;;;;;;9.68;66.03;100224.66;5050851;27;102248;-47
2021/12/24 10:27:04;;;;;;;8.57;7.35;;;;;;;9.68;65.67;100219.22;5039174;27;102111;-50
2021/12/24 10:29:33;;;;;;;8.57;7.10;;;;;;;9.67;65.73;100212.16;5041651;27;102964;-47
2021/12/24 10:32:08;;;;;;;8.15;6.97;;;;;;;9.68;66.19;100210.25;5040484;27;103742;-48
2021/12/24 10:34:37;;;;;;;8.80;7.32;;;;;;;9.66;65.69;100194.22;5040660;27;102874;-49
2021/12/24 10:37:13;;;;;;;8.63;7.35;;;;;;;9.66;65.73;100183.34;5038418;27;102342;-50
2021/12/24 10:39:46;;;;;;;7.97;6.93;;;;;;;9.67;65.74;100179.56;5037688;27;103060;-48
2021/12/24 10:42:19;;;;;;;8.32;7.50;;;;;;;9.67;65.37;100179.56;5049300;27;104389;-48
2021/12/24 10:44:47;;;;;;;9.43;7.47;;;;;;;9.68;65.75;100169.50;5045309;27;102479;-50
2021/12/24 10:47:16;;;;;;;8.25;7.00;;;;;;;9.68;65.94;100174.94;5047218;27;102162;-48
2021/12/24 10:50:28;;;;;;;9.85;7.53;;;;;;;9.67;65.87;100157.81;5042751;27;102636;-48
2021/12/24 10:55:23;;;;;;;8.25;7.45;;;;;;;9.68;65.30;100154.00;5050630;27;102489;-47
2021/12/24 10:57:52;;;;;;;9.27;7.47;;;;;;;9.67;65.91;100149.66;5035564;27;103457;-51
2021/12/24 11:00:22;;;;;;;8.35;7.00;;;;;;;9.68;66.07;100139.63;5039163;27;102257;-48
2021/12/24 11:02:53;;;;;;;8.68;7.45;;;;;;;9.67;65.56;100141.53;5046002;27;103895;-48
2021/12/24 11:05:31;;;;;;;8.27;7.30;;;;;;;9.68;66.06;100145.84;5056150;27;102166;-49
2021/12/24 11:08:00;;;;;;;8.17;7.37;;;;;;;9.68;65.40;100126.03;5038074;27;102765;-51
2021/12/24 11:10:28;;;;;;;8.05;6.95;;;;;;;9.68;65.42;100113.25;5052276;27;102410;-51
2021/12/24 11:12:57;;;;;;;8.68;6.82;;;;;;;9.70;65.98;100112.97;5043595;27;104069;-53
2021/12/24 11:15:29;;;;;;;8.13;7.07;;;;;;;9.69;65.95;100112.16;5039378;27;102483;-49
2021/12/24 11:17:59;;;;;;;8.48;7.57;;;;;;;9.71;65.63;100103.72;5038387;27;103959;-50
2021/12/24 11:20:28;;;;;;;8.75;7.45;;;;;;;9.70;65.52;100100.22;5042763;27;102736;-48
2021/12/24 11:22:58;;;;;;;7.93;7.10;;;;;;;9.71;66.03;100101.81;5049116;27;103923;-48
2021/12/24 11:25:30;;;;;;;7.78;6.97;;;;;;;9.70;66.08;100102.94;5042753;27;102364;-50
2021/12/24 11:27:57;;;;;;;8.13;7.32;;;;;;;9.72;65.74;100099.91;5045367;27;102780;-50
2021/12/24 11:30:27;;;;;;;9.90;7.30;;;;;;;9.72;65.82;100089.03;5044001;27;102155;-48
2021/12/24 11:32:54;;;;;;;9.05;6.97;;;;;;;9.71;65.89;100071.94;5040980;27;103899;-49
2021/12/24 11:35:22;;;;;;;9.38;7.65;;;;;;;9.72;66.33;100072.75;5040741;27;102718;-50
2021/12/24 11:37:49;;;;;;;8.63;7.40;;;;;;;9.73;65.92;100068.94;5051491;27;102348;-49
2021/12/24 11:40:18;;;;;;;8.25;7.38;;;;;;;9.72;65.71;100061.88;5041083;27;102201;-48
2021/12/24 11:42:51;;;;;;;9.30;7.70;;;;;;;9.73;65.81;100047.19;5038783;27;104063;-49
2021/12/24 11:45:20;;;;;;;8.20;7.40;;;;;;;9.74;65.63;100054.28;5044192;27;102037;-50
2021/12/24 11:47:46;;;;;;;;;;;;;;;9.73;65.88;100048.00;5053229;27;102738;-48
2021/12/24 11:50:13;;;;;;;8.20;7.30;;;;;;;9.73;65.95;100053.44;5041375;27;102348;-49
2021/12/24 11:52:41;;;;;;;8.68;7.78;;;;;;;9.74;66.11;100054.28;5042850;27;103905;-50
2021/12/24 11:55:08;;;;;;;9.60;8.55;;;;;;;9.73;66.20;100053.44;5054146;27;102231;-48
2021/12/24 11:57:35;;;;;;;8.27;7.38;;;;;;;9.73;65.79;100042.56;5051387;27;102415;-47
2021/12/24 12:00:11;;;;;;;9.40;8.00;;;;;;;9.72;66.04;100035.50;5039003;27;102213;-49
2021/12/24 12:02:45;;;;;;;8.93;8.02;;;;;;;9.73;65.57;100036.31;5042310;27;104101;-48
2021/12/24 12:05:14;;;;;;;11.02;7.72;;;;;;;9.72;66.34;100030.06;5048537;27;102253;-48
2021/12/24 12:07:41;;;;;;;8.32;7.47;;;;;;;9.73;65.79;100031.69;5040900;27;105813;-47
2021/12/24 12:10:09;;;;;;;9.80;7.70;;;;;;;9.73;66.08;100015.38;5049703;27;102371;-48
2021/12/24 12:12:39;;;;;;;8.90;7.93;;;;;;;9.73;66.42;100012.66;5035534;27;103897;-48
2021/12/24 12:15:27;;;;;;;9.65;8.07;;;;;;;9.74;65.99;100008.88;5040244;27;102312;-48
2021/12/24 12:18:04;;;;;;;8.80;7.90;;;;;;;9.74;66.08;99995.28;5048437;27;102212;-48
2021/12/24 12:20:43;;;;;;;8.02;7.15;;;;;;;9.74;65.58;99994.50;5050264;27;102550;-47
2021/12/24 12:23:16;;;;;;;9.30;7.75;;;;;;;9.73;66.32;99985.50;5039989;27;103930;-48
2021/12/24 12:25:43;;;;;;;8.95;7.78;;;;;;;9.73;66.34;99977.34;5042114;27;102582;-50
2021/12/24 12:28:15;;;;;;;9.13;7.70;;;;;;;9.73;66.20;99990.13;5040931;27;102174;-48
2021/12/24 12:30:49;;;;;;;8.70;7.80;;;;;;;9.73;65.69;99984.69;5038246;27;102439;-50
2021/12/24 12:33:18;;;;;;;8.93;7.88;;;;;;;9.73;65.89;99979.25;5050146;27;103864;-49
2021/12/24 12:35:48;;;;;;;9.13;7.60;;;;;;;9.73;66.44;99982.78;5040546;27;102324;-50
2021/12/24 12:38:27;;;;;;;8.30;7.40;;;;;;;9.72;66.10;99994.75;5039210;27;102119;-48
2021/12/24 12:40:54;;;;;;;8.48;7.20;;;;;;;9.73;66.53;100004.53;5037250;27;102495;-48
2021/12/24 12:43:21;;;;;;;8.50;7.53;;;;;;;9.73;65.91;100004.53;5044938;27;103942;-47
2021/12/24 12:46:02;;;;;;;9.10;8.20;;;;;;;9.73;66.29;99992.84;5049747;27;102716;-50
2021/12/24 12:48:42;;;;;;;9.05;8.15;;;;;;;9.73;66.17;99988.22;5047879;27;101971;-49
2021/12/24 12:51:09;;;;;;;9.45;8.18;;;;;;;9.73;65.84;99990.13;5046958;27;102347;-51
2021/12/24 12:53:39;;;;;;;9.63;8.02;;;;;;;9.73;65.80;99993.66;5034945;27;103876;-51
2021/12/24 12:56:13;;;;;;;9.32;8.18;;;;;;;9.73;65.56;99982.78;5035480;27;105625;-50
2021/12/24 12:58:41;;;;;;;9.98;8.02;;;;;;;9.72;65.70;99986.59;5036755;27;102248;-50
2021/12/24 13:01:12;;;;;;;8.60;7.70;;;;;;;9.73;65.78;99998.28;5043754;27;102712;-49
2021/12/24 13:04:10;;;;;;;9.65;8.13;;;;;;;9.72;65.66;99989.31;5038041;27;104086;-48
2021/12/24 13:06:55;;;;;;;8.67;7.63;;;;;;;9.73;66.13;99984.69;5036839;27;102891;-47
2021/12/24 13:09:26;;;;;;;9.23;8.20;;;;;;;9.73;66.45;99977.34;5037711;27;102540;-48
2021/12/24 13:11:55;;;;;;;9.50;8.52;;;;;;;9.73;66.35;99965.69;5042741;27;102980;-47
2021/12/24 13:14:24;;;;;;;9.88;8.55;;;;;;;9.72;66.04;99964.88;5036080;27;103714;-50